Flight Track Log - Related Links

Times and Time Zones

All times are in EDT time to prevent confusion due to time zone crossing. See the KEN1501 flight status page for this flight to view local times or setup timezone preferences in your user account.

Time Position Orientation Groundspeed Altitude Reporting Facility
EDT Latitude Longitude Course Direction KTS MPH feet Rate Location/Type
Sun 04:24:42 PM 47.5161 -122.3050 315° West 113 130 600  Level Seattle Center
Sun 04:25:49 PM 47.5483 -122.3531 315° West 167 192 900 422 Climbing Seattle Center
Sun 04:26:50 PM 47.5847 -122.3919 324° Northwest 164 189 1,500 541 Climbing Seattle Center
Sun 04:27:51 PM 47.6214 -122.4311 324° Northwest 165 190 2,000 744 Climbing Seattle Center
Sun 04:28:51 PM 47.6597 -122.4689 326° Northwest 154 177 3,000 923 Climbing Seattle Center
Sun 04:29:09 PM 47.6667 -122.4792 315° West 154 177 3,200 885 Climbing Seattle Center
Sun 04:29:52 PM 47.6942 -122.5092 324° Northwest 154 177 3,900 787 Climbing Seattle Center
Sun 04:30:10 PM 47.7017 -122.5172 324° Northwest 156 180 4,000  Climbing Seattle Center
Sun 04:30:53 PM 47.7333 -122.5503 325° Northwest 185 213 3,900 -100 Descending Seattle Center
Sun 04:31:10 PM 47.7450 -122.5608 329° Northwest 174 200 3,900 98 Level Seattle Center
Sun 04:31:54 PM 47.7686 -122.5936 317° Northwest 164 189 4,000 98 Climbing Seattle Center
Sun 04:32:11 PM 47.7806 -122.6044 329° Northwest 168 193 4,000 -261 Level Seattle Center
Sun 04:32:40 PM 47.7997 -122.6253 324° Northwest 172 198 3,800 -98 Descending Seattle Center
Sun 04:33:12 PM 47.8139 -122.6397 326° Northwest 175 201 3,900  Climbing Seattle Center
Sun 04:33:47 PM 47.8414 -122.6742 320° Northwest 174 200 3,800  Descending Seattle Center
Sun 04:34:13 PM 47.8614 -122.6881 335° Northwest 174 200 3,900 100 Climbing Seattle Center
Sun 04:34:47 PM 47.8864 -122.7017 340° North 183 211 3,900 98 Level Seattle Center
Sun 04:35:14 PM 47.9092 -122.7103 346° North 181 208 4,000  Climbing Seattle Center
Sun 04:35:48 PM 47.9367 -122.7328 331° Northwest 184 212 3,900  Descending Seattle Center
Sun 04:36:15 PM 47.9522 -122.7483 326° Northwest 181 208 4,000  Climbing Seattle Center
Sun 04:36:49 PM 47.9756 -122.7803 317° Northwest 181 208 3,900  Descending Seattle Center
Sun 04:37:16 PM 47.9908 -122.7953 327° Northwest 180 207 4,000  Climbing Seattle Center
Sun 04:37:49 PM 48.0139 -122.8247 319° Northwest 180 207 3,900  Descending Seattle Center
Sun 04:38:17 PM 48.0297 -122.8411 325° Northwest 181 208 4,000  Climbing Seattle Center
Sun 04:38:50 PM 48.0417 -122.8819 294° West 178 205 3,900 -98 Descending Seattle Center
Sun 04:39:18 PM 48.0442 -122.9078 278° West 176 203 3,900 -200 Level Seattle Center
Sun 04:39:50 PM 48.0492 -122.9542 279° West 174 200 3,700 -200 Descending Seattle Center
Sun 04:40:18 PM 48.0544 -122.9781 288° West 177 204 3,700 -98 Level Seattle Center
Sun 04:40:51 PM 48.0617 -123.0303 282° West 175 201 3,600 -98 Descending Seattle Center
Sun 04:41:19 PM 48.0667 -123.0464 295° West 173 199 3,600  Level Seattle Center
Sun 04:41:52 PM 48.0733 -123.0933 282° West 163 188 3,600  Level Seattle Center
Sun 04:42:20 PM 48.0767 -123.1094 287° West 161 185 3,600 -200 Level Seattle Center
Sun 04:42:52 PM 48.0828 -123.1578 281° West 157 181 3,400 -492 Descending Seattle Center
Sun 04:43:21 PM 48.0819 -123.1875 268° West 159 183 3,100 -492 Descending Seattle Center
Sun 04:43:53 PM 48.0800 -123.2258 266° West 173 199 2,900 -197 Descending Seattle Center
Sun 04:44:22 PM 48.0822 -123.2556 276° West 168 193 2,900  Level Seattle Center
Sun 04:44:53 PM 48.0817 -123.2944 269° West 150 173 2,900 -197 Level Seattle Center
Sun 04:45:23 PM 48.0847 -123.3128 284° West 153 176 2,700 -590 Descending Seattle Center
Sun 04:45:54 PM 48.0914 -123.3422 289° West 112 129 2,300 -689 Descending Seattle Center
Sun 04:46:24 PM 48.0944 -123.3586 286° West 129 148 2,000 -716 Descending Seattle Center
Sun 04:47:01 PM 48.1006 -123.3967 284° West 124 143 1,500 -800 Descending Seattle Center
Sun 04:47:24 PM 48.1028 -123.4114 283° West 127 146 1,200 -571 Descending Seattle Center
Sun 04:48:25 PM 48.1111 -123.4608 284° West 126 145 700 -393 Descending Seattle Center
Sun 04:49:26 PM 48.1228 -123.5194 287° West 125 144 400 -295 Descending Seattle Center

Login

Don't have an account? Register now (free) for customized features, flight alerts, and more!